sensor_id;sensor_type;location;lat;lon;timestamp;P1;durP1;ratioP1;P2;durP2;ratioP2
42244;SDS011;27912;51.828;5.688;2022-08-02T00:01:36;3.15;;;1.05;;
42244;SDS011;27912;51.828;5.688;2022-08-02T00:04:02;2.83;;;0.52;;
42244;SDS011;27912;51.828;5.688;2022-08-02T00:06:28;3.45;;;0.55;;
42244;SDS011;27912;51.828;5.688;2022-08-02T00:08:54;3.13;;;0.70;;
42244;SDS011;27912;51.828;5.688;2022-08-02T00:11:19;2.30;;;0.63;;
42244;SDS011;27912;51.828;5.688;2022-08-02T00:13:45;1.95;;;0.50;;
42244;SDS011;27912;51.828;5.688;2022-08-02T00:16:11;4.30;;;0.50;;
42244;SDS011;27912;51.828;5.688;2022-08-02T00:18:36;1.98;;;0.50;;
42244;SDS011;27912;51.828;5.688;2022-08-02T00:21:02;2.58;;;0.43;;
42244;SDS011;27912;51.828;5.688;2022-08-02T00:23:28;2.55;;;0.50;;
42244;SDS011;27912;51.828;5.688;2022-08-02T00:25:53;4.70;;;0.60;;
42244;SDS011;27912;51.828;5.688;2022-08-02T00:28:19;2.22;;;0.50;;
42244;SDS011;27912;51.828;5.688;2022-08-02T00:30:44;3.80;;;0.40;;
42244;SDS011;27912;51.828;5.688;2022-08-02T00:33:10;1.52;;;0.40;;
42244;SDS011;27912;51.828;5.688;2022-08-02T00:35:35;2.72;;;0.70;;
42244;SDS011;27912;51.828;5.688;2022-08-02T00:38:01;6.47;;;1.95;;
42244;SDS011;27912;51.828;5.688;2022-08-02T00:40:28;8.73;;;0.73;;
42244;SDS011;27912;51.828;5.688;2022-08-02T00:45:34;2.22;;;0.50;;
42244;SDS011;27912;51.828;5.688;2022-08-02T00:48:01;2.55;;;0.70;;
42244;SDS011;27912;51.828;5.688;2022-08-02T00:50:27;3.75;;;0.70;;
42244;SDS011;27912;51.828;5.688;2022-08-02T00:52:53;2.70;;;0.60;;
42244;SDS011;27912;51.828;5.688;2022-08-02T00:55:19;2.38;;;0.65;;
42244;SDS011;27912;51.828;5.688;2022-08-02T00:57:45;2.58;;;0.57;;
42244;SDS011;27912;51.828;5.688;2022-08-02T01:00:12;4.72;;;0.50;;
42244;SDS011;27912;51.828;5.688;2022-08-02T01:02:37;1.83;;;0.80;;
42244;SDS011;27912;51.828;5.688;2022-08-02T01:05:04;1.70;;;0.40;;
42244;SDS011;27912;51.828;5.688;2022-08-02T01:07:29;3.63;;;0.77;;
42244;SDS011;27912;51.828;5.688;2022-08-02T01:09:55;3.17;;;0.60;;
42244;SDS011;27912;51.828;5.688;2022-08-02T01:12:21;4.05;;;0.57;;
42244;SDS011;27912;51.828;5.688;2022-08-02T01:14:47;3.08;;;0.40;;
42244;SDS011;27912;51.828;5.688;2022-08-02T01:17:17;2.17;;;0.40;;
42244;SDS011;27912;51.828;5.688;2022-08-02T01:31:17;3.58;;;0.47;;
42244;SDS011;27912;51.828;5.688;2022-08-02T01:33:50;4.55;;;0.43;;
42244;SDS011;27912;51.828;5.688;2022-08-02T01:36:30;3.28;;;0.50;;
42244;SDS011;27912;51.828;5.688;2022-08-02T01:39:00;4.10;;;0.52;;
42244;SDS011;27912;51.828;5.688;2022-08-02T01:41:29;3.83;;;0.40;;
42244;SDS011;27912;51.828;5.688;2022-08-02T01:43:57;4.60;;;0.60;;
42244;SDS011;27912;51.828;5.688;2022-08-02T01:46:26;4.15;;;0.47;;
42244;SDS011;27912;51.828;5.688;2022-08-02T01:48:53;3.55;;;0.80;;
42244;SDS011;27912;51.828;5.688;2022-08-02T01:51:20;2.90;;;0.60;;
42244;SDS011;27912;51.828;5.688;2022-08-02T01:54:06;3.60;;;0.70;;
42244;SDS011;27912;51.828;5.688;2022-08-02T01:56:35;4.65;;;0.50;;
42244;SDS011;27912;51.828;5.688;2022-08-02T01:59:02;3.63;;;0.73;;
42244;SDS011;27912;51.828;5.688;2022-08-02T02:01:32;1.92;;;0.68;;
42244;SDS011;27912;51.828;5.688;2022-08-02T02:04:00;2.67;;;0.50;;
42244;SDS011;27912;51.828;5.688;2022-08-02T02:06:27;2.70;;;0.40;;
42244;SDS011;27912;51.828;5.688;2022-08-02T02:08:53;3.55;;;0.50;;
42244;SDS011;27912;51.828;5.688;2022-08-02T02:11:20;3.28;;;0.47;;
42244;SDS011;27912;51.828;5.688;2022-08-02T02:13:46;4.60;;;0.65;;
42244;SDS011;27912;51.828;5.688;2022-08-02T02:16:13;2.30;;;0.50;;
42244;SDS011;27912;51.828;5.688;2022-08-02T02:18:40;4.18;;;0.55;;
42244;SDS011;27912;51.828;5.688;2022-08-02T02:21:08;3.25;;;0.73;;
42244;SDS011;27912;51.828;5.688;2022-08-02T02:23:35;5.68;;;0.68;;
42244;SDS011;27912;51.828;5.688;2022-08-02T02:26:02;3.10;;;0.52;;
42244;SDS011;27912;51.828;5.688;2022-08-02T02:28:29;7.90;;;1.85;;
42244;SDS011;27912;51.828;5.688;2022-08-02T02:30:58;4.95;;;0.63;;
42244;SDS011;27912;51.828;5.688;2022-08-02T02:33:27;3.70;;;0.40;;
42244;SDS011;27912;51.828;5.688;2022-08-02T02:35:55;3.47;;;0.47;;
42244;SDS011;27912;51.828;5.688;2022-08-02T02:38:22;4.22;;;0.50;;
42244;SDS011;27912;51.828;5.688;2022-08-02T02:40:51;5.53;;;0.73;;
42244;SDS011;27912;51.828;5.688;2022-08-02T02:43:17;2.90;;;0.57;;
42244;SDS011;27912;51.828;5.688;2022-08-02T02:45:44;2.85;;;0.40;;
42244;SDS011;27912;51.828;5.688;2022-08-02T02:48:11;3.92;;;0.60;;
42244;SDS011;27912;51.828;5.688;2022-08-02T02:50:38;3.00;;;0.50;;
42244;SDS011;27912;51.828;5.688;2022-08-02T02:53:06;3.42;;;0.60;;
42244;SDS011;27912;51.828;5.688;2022-08-02T02:55:34;3.67;;;0.57;;
42244;SDS011;27912;51.828;5.688;2022-08-02T02:57:59;2.80;;;0.50;;
42244;SDS011;27912;51.828;5.688;2022-08-02T03:00:26;4.28;;;0.50;;
42244;SDS011;27912;51.828;5.688;2022-08-02T03:03:11;5.25;;;0.70;;
42244;SDS011;27912;51.828;5.688;2022-08-02T03:05:38;2.95;;;0.50;;
42244;SDS011;27912;51.828;5.688;2022-08-02T03:08:03;4.20;;;0.65;;
42244;SDS011;27912;51.828;5.688;2022-08-02T03:10:29;3.47;;;0.80;;
42244;SDS011;27912;51.828;5.688;2022-08-02T03:12:55;3.15;;;0.80;;
42244;SDS011;27912;51.828;5.688;2022-08-02T03:15:22;3.88;;;0.55;;
42244;SDS011;27912;51.828;5.688;2022-08-02T03:17:51;3.47;;;0.70;;
42244;SDS011;27912;51.828;5.688;2022-08-02T03:20:18;3.22;;;0.50;;
42244;SDS011;27912;51.828;5.688;2022-08-02T03:22:44;4.95;;;0.80;;
42244;SDS011;27912;51.828;5.688;2022-08-02T03:25:11;6.75;;;0.70;;
42244;SDS011;27912;51.828;5.688;2022-08-02T03:27:38;3.33;;;0.80;;
42244;SDS011;27912;51.828;5.688;2022-08-02T03:30:05;4.80;;;0.73;;
42244;SDS011;27912;51.828;5.688;2022-08-02T03:32:32;2.60;;;0.50;;
42244;SDS011;27912;51.828;5.688;2022-08-02T03:35:03;4.63;;;0.90;;
42244;SDS011;27912;51.828;5.688;2022-08-02T03:37:30;3.35;;;0.80;;
42244;SDS011;27912;51.828;5.688;2022-08-02T03:39:57;5.75;;;0.77;;
42244;SDS011;27912;51.828;5.688;2022-08-02T03:42:24;6.47;;;0.90;;
42244;SDS011;27912;51.828;5.688;2022-08-02T03:44:52;3.55;;;0.70;;
42244;SDS011;27912;51.828;5.688;2022-08-02T03:47:19;4.38;;;0.82;;
42244;SDS011;27912;51.828;5.688;2022-08-02T03:49:46;4.22;;;0.90;;
42244;SDS011;27912;51.828;5.688;2022-08-02T03:52:11;2.20;;;0.90;;
42244;SDS011;27912;51.828;5.688;2022-08-02T03:54:38;5.97;;;1.23;;
42244;SDS011;27912;51.828;5.688;2022-08-02T03:57:04;2.25;;;0.85;;
42244;SDS011;27912;51.828;5.688;2022-08-02T03:59:40;4.22;;;0.98;;
42244;SDS011;27912;51.828;5.688;2022-08-02T04:02:07;2.85;;;0.73;;
42244;SDS011;27912;51.828;5.688;2022-08-02T04:04:34;2.75;;;0.70;;
42244;SDS011;27912;51.828;5.688;2022-08-02T04:06:59;3.08;;;0.70;;
42244;SDS011;27912;51.828;5.688;2022-08-02T04:09:25;3.08;;;1.00;;
42244;SDS011;27912;51.828;5.688;2022-08-02T04:11:51;6.82;;;1.73;;
42244;SDS011;27912;51.828;5.688;2022-08-02T04:14:16;3.70;;;1.10;;
42244;SDS011;27912;51.828;5.688;2022-08-02T04:16:43;3.65;;;1.10;;
42244;SDS011;27912;51.828;5.688;2022-08-02T04:19:20;6.00;;;1.52;;
42244;SDS011;27912;51.828;5.688;2022-08-02T04:21:51;4.82;;;1.05;;
42244;SDS011;27912;51.828;5.688;2022-08-02T04:24:21;5.07;;;1.20;;
42244;SDS011;27912;51.828;5.688;2022-08-02T04:26:51;5.72;;;1.40;;
42244;SDS011;27912;51.828;5.688;2022-08-02T04:29:19;5.05;;;1.30;;
42244;SDS011;27912;51.828;5.688;2022-08-02T04:31:46;4.88;;;1.42;;
42244;SDS011;27912;51.828;5.688;2022-08-02T04:34:12;6.50;;;1.55;;
42244;SDS011;27912;51.828;5.688;2022-08-02T04:36:37;3.85;;;1.60;;
42244;SDS011;27912;51.828;5.688;2022-08-02T04:39:04;4.65;;;1.40;;
42244;SDS011;27912;51.828;5.688;2022-08-02T04:41:36;10.77;;;1.80;;
42244;SDS011;27912;51.828;5.688;2022-08-02T04:46:27;6.57;;;1.75;;
42244;SDS011;27912;51.828;5.688;2022-08-02T04:48:53;5.35;;;2.05;;
42244;SDS011;27912;51.828;5.688;2022-08-02T04:51:19;8.38;;;2.03;;
42244;SDS011;27912;51.828;5.688;2022-08-02T04:53:44;5.80;;;1.50;;
42244;SDS011;27912;51.828;5.688;2022-08-02T04:56:10;6.22;;;2.03;;
42244;SDS011;27912;51.828;5.688;2022-08-02T04:58:35;8.00;;;1.52;;
42244;SDS011;27912;51.828;5.688;2022-08-02T05:01:01;7.15;;;1.52;;
42244;SDS011;27912;51.828;5.688;2022-08-02T05:03:26;4.95;;;1.70;;
42244;SDS011;27912;51.828;5.688;2022-08-02T05:05:52;5.75;;;1.65;;
42244;SDS011;27912;51.828;5.688;2022-08-02T05:08:18;7.07;;;1.40;;
42244;SDS011;27912;51.828;5.688;2022-08-02T05:10:43;7.38;;;2.13;;
42244;SDS011;27912;51.828;5.688;2022-08-02T05:13:09;4.00;;;1.63;;
42244;SDS011;27912;51.828;5.688;2022-08-02T05:15:34;9.88;;;2.30;;
42244;SDS011;27912;51.828;5.688;2022-08-02T05:18:00;5.93;;;2.17;;
42244;SDS011;27912;51.828;5.688;2022-08-02T05:20:25;8.07;;;2.63;;
42244;SDS011;27912;51.828;5.688;2022-08-02T05:22:51;5.72;;;2.17;;
42244;SDS011;27912;51.828;5.688;2022-08-02T05:25:17;7.53;;;2.22;;
42244;SDS011;27912;51.828;5.688;2022-08-02T05:27:42;8.95;;;3.38;;
42244;SDS011;27912;51.828;5.688;2022-08-02T05:30:08;6.85;;;2.72;;
42244;SDS011;27912;51.828;5.688;2022-08-02T05:32:36;8.75;;;2.55;;
42244;SDS011;27912;51.828;5.688;2022-08-02T05:35:10;8.77;;;2.10;;
42244;SDS011;27912;51.828;5.688;2022-08-02T05:37:36;6.03;;;2.22;;
42244;SDS011;27912;51.828;5.688;2022-08-02T05:40:01;11.05;;;3.00;;
42244;SDS011;27912;51.828;5.688;2022-08-02T05:42:30;4.35;;;2.08;;
42244;SDS011;27912;51.828;5.688;2022-08-02T05:44:56;6.72;;;2.90;;
42244;SDS011;27912;51.828;5.688;2022-08-02T05:47:22;10.38;;;2.50;;
42244;SDS011;27912;51.828;5.688;2022-08-02T05:49:48;6.68;;;2.53;;
42244;SDS011;27912;51.828;5.688;2022-08-02T05:52:14;6.45;;;2.65;;
42244;SDS011;27912;51.828;5.688;2022-08-02T06:00:30;14.27;;;4.35;;
42244;SDS011;27912;51.828;5.688;2022-08-02T06:03:13;5.75;;;2.40;;
42244;SDS011;27912;51.828;5.688;2022-08-02T06:05:49;9.10;;;3.00;;
42244;SDS011;27912;51.828;5.688;2022-08-02T06:08:20;7.45;;;2.50;;
42244;SDS011;27912;51.828;5.688;2022-08-02T06:10:54;6.75;;;3.00;;
42244;SDS011;27912;51.828;5.688;2022-08-02T06:13:28;5.65;;;2.45;;
42244;SDS011;27912;51.828;5.688;2022-08-02T06:15:53;8.07;;;2.85;;
42244;SDS011;27912;51.828;5.688;2022-08-02T06:18:23;5.75;;;3.05;;
42244;SDS011;27912;51.828;5.688;2022-08-02T06:20:52;7.85;;;3.70;;
42244;SDS011;27912;51.828;5.688;2022-08-02T06:23:19;9.38;;;3.20;;
42244;SDS011;27912;51.828;5.688;2022-08-02T06:25:47;7.38;;;3.45;;
42244;SDS011;27912;51.828;5.688;2022-08-02T06:28:15;6.40;;;2.95;;
42244;SDS011;27912;51.828;5.688;2022-08-02T06:30:42;8.55;;;4.35;;
42244;SDS011;27912;51.828;5.688;2022-08-02T06:33:11;7.80;;;4.35;;
42244;SDS011;27912;51.828;5.688;2022-08-02T06:35:45;7.75;;;3.40;;
42244;SDS011;27912;51.828;5.688;2022-08-02T06:38:35;7.35;;;3.70;;
42244;SDS011;27912;51.828;5.688;2022-08-02T06:41:06;11.25;;;4.10;;
42244;SDS011;27912;51.828;5.688;2022-08-02T06:43:37;9.13;;;3.90;;
42244;SDS011;27912;51.828;5.688;2022-08-02T06:46:09;9.05;;;4.35;;
42244;SDS011;27912;51.828;5.688;2022-08-02T06:48:34;11.70;;;5.00;;
42244;SDS011;27912;51.828;5.688;2022-08-02T06:51:03;9.98;;;4.55;;
42244;SDS011;27912;51.828;5.688;2022-08-02T06:53:30;9.40;;;4.78;;
42244;SDS011;27912;51.828;5.688;2022-08-02T06:55:56;12.02;;;5.15;;
42244;SDS011;27912;51.828;5.688;2022-08-02T06:58:22;8.77;;;5.75;;
42244;SDS011;27912;51.828;5.688;2022-08-02T07:00:47;13.55;;;4.72;;
42244;SDS011;27912;51.828;5.688;2022-08-02T07:03:13;10.88;;;5.00;;
42244;SDS011;27912;51.828;5.688;2022-08-02T07:05:39;7.18;;;5.43;;
42244;SDS011;27912;51.828;5.688;2022-08-02T07:08:06;9.60;;;5.75;;
42244;SDS011;27912;51.828;5.688;2022-08-02T07:10:31;6.95;;;4.97;;
42244;SDS011;27912;51.828;5.688;2022-08-02T07:12:57;7.47;;;5.43;;
42244;SDS011;27912;51.828;5.688;2022-08-02T07:15:22;10.88;;;7.05;;
42244;SDS011;27912;51.828;5.688;2022-08-02T07:17:48;11.18;;;6.00;;
42244;SDS011;27912;51.828;5.688;2022-08-02T07:20:14;12.73;;;5.78;;
42244;SDS011;27912;51.828;5.688;2022-08-02T07:22:40;10.10;;;7.45;;
42244;SDS011;27912;51.828;5.688;2022-08-02T07:25:06;9.32;;;5.90;;
42244;SDS011;27912;51.828;5.688;2022-08-02T07:27:32;12.60;;;7.00;;
42244;SDS011;27912;51.828;5.688;2022-08-02T07:29:58;10.55;;;6.57;;
42244;SDS011;27912;51.828;5.688;2022-08-02T07:32:24;11.18;;;7.00;;
42244;SDS011;27912;51.828;5.688;2022-08-02T07:34:52;6.63;;;5.13;;
42244;SDS011;27912;51.828;5.688;2022-08-02T07:37:27;8.55;;;5.68;;
42244;SDS011;27912;51.828;5.688;2022-08-02T07:39:57;7.60;;;5.70;;
42244;SDS011;27912;51.828;5.688;2022-08-02T07:42:23;10.02;;;6.00;;
42244;SDS011;27912;51.828;5.688;2022-08-02T07:44:48;8.02;;;5.85;;
42244;SDS011;27912;51.828;5.688;2022-08-02T07:47:14;9.18;;;5.85;;
42244;SDS011;27912;51.828;5.688;2022-08-02T07:49:40;6.82;;;5.05;;
42244;SDS011;27912;51.828;5.688;2022-08-02T07:52:06;7.82;;;5.32;;
42244;SDS011;27912;51.828;5.688;2022-08-02T07:54:31;6.75;;;5.45;;
42244;SDS011;27912;51.828;5.688;2022-08-02T07:56:57;7.65;;;4.72;;
42244;SDS011;27912;51.828;5.688;2022-08-02T07:59:25;7.00;;;4.72;;
42244;SDS011;27912;51.828;5.688;2022-08-02T08:01:56;7.32;;;4.97;;
42244;SDS011;27912;51.828;5.688;2022-08-02T08:04:21;8.25;;;5.10;;
42244;SDS011;27912;51.828;5.688;2022-08-02T08:06:47;8.50;;;4.97;;
42244;SDS011;27912;51.828;5.688;2022-08-02T08:09:15;6.75;;;4.68;;
42244;SDS011;27912;51.828;5.688;2022-08-02T08:11:41;6.15;;;5.05;;
42244;SDS011;27912;51.828;5.688;2022-08-02T08:14:07;6.60;;;4.47;;
42244;SDS011;27912;51.828;5.688;2022-08-02T08:16:32;7.00;;;4.30;;
42244;SDS011;27912;51.828;5.688;2022-08-02T08:18:58;6.82;;;3.67;;
42244;SDS011;27912;51.828;5.688;2022-08-02T08:21:24;8.70;;;4.15;;
42244;SDS011;27912;51.828;5.688;2022-08-02T08:23:49;6.30;;;3.35;;
42244;SDS011;27912;51.828;5.688;2022-08-02T08:26:15;6.28;;;3.17;;
42244;SDS011;27912;51.828;5.688;2022-08-02T08:28:41;5.50;;;3.20;;
42244;SDS011;27912;51.828;5.688;2022-08-02T08:31:06;5.43;;;2.95;;
42244;SDS011;27912;51.828;5.688;2022-08-02T08:33:32;7.95;;;3.35;;
42244;SDS011;27912;51.828;5.688;2022-08-02T08:35:58;4.00;;;2.70;;
42244;SDS011;27912;51.828;5.688;2022-08-02T08:38:23;4.57;;;2.33;;
42244;SDS011;27912;51.828;5.688;2022-08-02T08:40:49;3.22;;;2.58;;
42244;SDS011;27912;51.828;5.688;2022-08-02T08:43:15;4.03;;;2.00;;
42244;SDS011;27912;51.828;5.688;2022-08-02T08:45:44;2.88;;;1.30;;
42244;SDS011;27912;51.828;5.688;2022-08-02T08:48:11;3.72;;;1.20;;
42244;SDS011;27912;51.828;5.688;2022-08-02T08:50:52;2.22;;;0.82;;
42244;SDS011;27912;51.828;5.688;2022-08-02T08:53:21;4.13;;;1.15;;
42244;SDS011;27912;51.828;5.688;2022-08-02T08:55:49;3.33;;;1.00;;
42244;SDS011;27912;51.828;5.688;2022-08-02T08:58:17;4.38;;;0.90;;
42244;SDS011;27912;51.828;5.688;2022-08-02T09:00:43;4.22;;;1.27;;
42244;SDS011;27912;51.828;5.688;2022-08-02T09:03:10;2.47;;;1.00;;
42244;SDS011;27912;51.828;5.688;2022-08-02T09:05:36;2.22;;;0.85;;
42244;SDS011;27912;51.828;5.688;2022-08-02T09:08:02;4.40;;;1.17;;
42244;SDS011;27912;51.828;5.688;2022-08-02T09:15:30;2.67;;;0.82;;
42244;SDS011;27912;51.828;5.688;2022-08-02T09:17:56;2.13;;;0.70;;
42244;SDS011;27912;51.828;5.688;2022-08-02T09:20:21;1.65;;;0.50;;
42244;SDS011;27912;51.828;5.688;2022-08-02T09:23:03;2.33;;;0.55;;
42244;SDS011;27912;51.828;5.688;2022-08-02T09:25:32;2.15;;;0.50;;
42244;SDS011;27912;51.828;5.688;2022-08-02T09:27:58;1.38;;;0.50;;
42244;SDS011;27912;51.828;5.688;2022-08-02T09:30:27;4.40;;;0.52;;
42244;SDS011;27912;51.828;5.688;2022-08-02T09:32:53;4.00;;;0.70;;
42244;SDS011;27912;51.828;5.688;2022-08-02T09:38:07;3.15;;;0.40;;
42244;SDS011;27912;51.828;5.688;2022-08-02T09:40:36;1.65;;;0.40;;
42244;SDS011;27912;51.828;5.688;2022-08-02T09:43:03;2.78;;;0.40;;
42244;SDS011;27912;51.828;5.688;2022-08-02T09:45:33;2.00;;;0.60;;
42244;SDS011;27912;51.828;5.688;2022-08-02T09:48:00;1.38;;;0.60;;
42244;SDS011;27912;51.828;5.688;2022-08-02T09:50:27;0.88;;;0.30;;
42244;SDS011;27912;51.828;5.688;2022-08-02T09:52:56;1.98;;;0.40;;
42244;SDS011;27912;51.828;5.688;2022-08-02T09:55:23;2.15;;;0.40;;
42244;SDS011;27912;51.828;5.688;2022-08-02T09:57:49;1.38;;;0.40;;
42244;SDS011;27912;51.828;5.688;2022-08-02T10:00:16;2.22;;;0.40;;
42244;SDS011;27912;51.828;5.688;2022-08-02T10:08:22;0.80;;;0.40;;
42244;SDS011;27912;51.828;5.688;2022-08-02T10:10:49;2.10;;;0.30;;
42244;SDS011;27912;51.828;5.688;2022-08-02T10:13:24;2.47;;;0.30;;
42244;SDS011;27912;51.828;5.688;2022-08-02T10:15:52;1.50;;;0.43;;
42244;SDS011;27912;51.828;5.688;2022-08-02T10:18:19;2.05;;;0.43;;
42244;SDS011;27912;51.828;5.688;2022-08-02T10:20:45;0.82;;;0.30;;
42244;SDS011;27912;51.828;5.688;2022-08-02T10:23:12;1.88;;;0.30;;
42244;SDS011;27912;51.828;5.688;2022-08-02T10:25:39;0.60;;;0.35;;
42244;SDS011;27912;51.828;5.688;2022-08-02T10:28:06;1.90;;;0.40;;
42244;SDS011;27912;51.828;5.688;2022-08-02T10:30:35;2.33;;;0.40;;
42244;SDS011;27912;51.828;5.688;2022-08-02T10:33:04;1.55;;;0.30;;
42244;SDS011;27912;51.828;5.688;2022-08-02T10:35:34;1.90;;;0.40;;
42244;SDS011;27912;51.828;5.688;2022-08-02T10:38:07;1.88;;;0.40;;
42244;SDS011;27912;51.828;5.688;2022-08-02T10:40:48;0.77;;;0.30;;
42244;SDS011;27912;51.828;5.688;2022-08-02T10:49:06;0.50;;;0.30;;
42244;SDS011;27912;51.828;5.688;2022-08-02T10:54:26;2.00;;;0.43;;
42244;SDS011;27912;51.828;5.688;2022-08-02T10:56:56;1.00;;;0.45;;
42244;SDS011;27912;51.828;5.688;2022-08-02T11:01:50;1.20;;;0.30;;
42244;SDS011;27912;51.828;5.688;2022-08-02T11:04:16;0.88;;;0.20;;
42244;SDS011;27912;51.828;5.688;2022-08-02T11:09:38;1.88;;;0.30;;
42244;SDS011;27912;51.828;5.688;2022-08-02T11:12:09;1.58;;;0.30;;
42244;SDS011;27912;51.828;5.688;2022-08-02T11:14:37;2.35;;;0.28;;
42244;SDS011;27912;51.828;5.688;2022-08-02T11:17:09;2.35;;;0.47;;
42244;SDS011;27912;51.828;5.688;2022-08-02T11:20:24;1.10;;;0.22;;
42244;SDS011;27912;51.828;5.688;2022-08-02T11:22:39;0.50;;;0.28;;
42244;SDS011;27912;51.828;5.688;2022-08-02T11:27:47;0.70;;;0.30;;
42244;SDS011;27912;51.828;5.688;2022-08-02T11:30:13;1.80;;;0.20;;
42244;SDS011;27912;51.828;5.688;2022-08-02T11:32:39;0.73;;;0.20;;
42244;SDS011;27912;51.828;5.688;2022-08-02T11:35:05;2.38;;;0.20;;
42244;SDS011;27912;51.828;5.688;2022-08-02T11:37:35;1.05;;;0.40;;
42244;SDS011;27912;51.828;5.688;2022-08-02T11:40:11;0.77;;;0.30;;
42244;SDS011;27912;51.828;5.688;2022-08-02T11:42:42;2.35;;;0.40;;
42244;SDS011;27912;51.828;5.688;2022-08-02T11:45:10;2.35;;;0.40;;
42244;SDS011;27912;51.828;5.688;2022-08-02T11:47:44;1.13;;;0.30;;
42244;SDS011;27912;51.828;5.688;2022-08-02T11:50:11;1.02;;;0.30;;
42244;SDS011;27912;51.828;5.688;2022-08-02T11:52:36;5.88;;;0.30;;
42244;SDS011;27912;51.828;5.688;2022-08-02T11:55:03;1.25;;;0.30;;
42244;SDS011;27912;51.828;5.688;2022-08-02T11:57:34;2.67;;;0.40;;
42244;SDS011;27912;51.828;5.688;2022-08-02T12:00:00;0.77;;;0.30;;
42244;SDS011;27912;51.828;5.688;2022-08-02T12:02:29;1.33;;;0.20;;
42244;SDS011;27912;51.828;5.688;2022-08-02T12:05:00;0.90;;;0.20;;
42244;SDS011;27912;51.828;5.688;2022-08-02T12:07:31;0.57;;;0.20;;
42244;SDS011;27912;51.828;5.688;2022-08-02T12:09:58;0.77;;;0.20;;
42244;SDS011;27912;51.828;5.688;2022-08-02T12:12:25;1.27;;;0.20;;
42244;SDS011;27912;51.828;5.688;2022-08-02T12:14:51;1.65;;;0.20;;
42244;SDS011;27912;51.828;5.688;2022-08-02T12:17:25;1.30;;;0.20;;
42244;SDS011;27912;51.828;5.688;2022-08-02T12:20:11;0.82;;;0.38;;
42244;SDS011;27912;51.828;5.688;2022-08-02T12:22:37;0.93;;;0.20;;
42244;SDS011;27912;51.828;5.688;2022-08-02T12:25:17;3.13;;;0.30;;
42244;SDS011;27912;51.828;5.688;2022-08-02T12:27:44;0.40;;;0.17;;
42244;SDS011;27912;51.828;5.688;2022-08-02T12:30:14;2.35;;;0.20;;
42244;SDS011;27912;51.828;5.688;2022-08-02T12:32:42;0.80;;;0.20;;
42244;SDS011;27912;51.828;5.688;2022-08-02T12:37:36;1.10;;;0.22;;
42244;SDS011;27912;51.828;5.688;2022-08-02T12:40:26;2.40;;;0.30;;
42244;SDS011;27912;51.828;5.688;2022-08-02T12:42:56;1.40;;;0.30;;
42244;SDS011;27912;51.828;5.688;2022-08-02T12:45:23;2.15;;;0.17;;
42244;SDS011;27912;51.828;5.688;2022-08-02T12:47:51;1.08;;;0.20;;
42244;SDS011;27912;51.828;5.688;2022-08-02T12:50:28;1.52;;;0.28;;
42244;SDS011;27912;51.828;5.688;2022-08-02T12:53:16;2.15;;;0.20;;
42244;SDS011;27912;51.828;5.688;2022-08-02T12:55:46;0.98;;;0.30;;
42244;SDS011;27912;51.828;5.688;2022-08-02T12:58:15;1.92;;;0.28;;
42244;SDS011;27912;51.828;5.688;2022-08-02T13:00:40;0.85;;;0.20;;
42244;SDS011;27912;51.828;5.688;2022-08-02T13:03:07;2.30;;;0.20;;
42244;SDS011;27912;51.828;5.688;2022-08-02T13:05:34;1.23;;;0.30;;
42244;SDS011;27912;51.828;5.688;2022-08-02T13:08:00;2.17;;;0.25;;
42244;SDS011;27912;51.828;5.688;2022-08-02T13:10:26;1.17;;;0.60;;
42244;SDS011;27912;51.828;5.688;2022-08-02T13:12:52;2.83;;;0.20;;
42244;SDS011;27912;51.828;5.688;2022-08-02T13:15:18;2.05;;;0.20;;
42244;SDS011;27912;51.828;5.688;2022-08-02T13:17:45;1.92;;;0.32;;
42244;SDS011;27912;51.828;5.688;2022-08-02T13:20:11;3.47;;;0.30;;
42244;SDS011;27912;51.828;5.688;2022-08-02T13:22:39;0.52;;;0.20;;
42244;SDS011;27912;51.828;5.688;2022-08-02T13:25:05;1.05;;;0.28;;
42244;SDS011;27912;51.828;5.688;2022-08-02T13:27:31;0.55;;;0.20;;
42244;SDS011;27912;51.828;5.688;2022-08-02T13:29:58;0.70;;;0.25;;
42244;SDS011;27912;51.828;5.688;2022-08-02T13:32:24;1.27;;;0.30;;
42244;SDS011;27912;51.828;5.688;2022-08-02T13:34:52;0.88;;;0.20;;
42244;SDS011;27912;51.828;5.688;2022-08-02T13:37:19;0.75;;;0.30;;
42244;SDS011;27912;51.828;5.688;2022-08-02T13:39:45;1.52;;;0.20;;
42244;SDS011;27912;51.828;5.688;2022-08-02T13:42:11;1.98;;;0.20;;
42244;SDS011;27912;51.828;5.688;2022-08-02T13:44:36;2.05;;;0.20;;
42244;SDS011;27912;51.828;5.688;2022-08-02T13:47:02;2.13;;;0.30;;
42244;SDS011;27912;51.828;5.688;2022-08-02T13:49:28;1.73;;;0.30;;
42244;SDS011;27912;51.828;5.688;2022-08-02T13:51:54;0.52;;;0.22;;
42244;SDS011;27912;51.828;5.688;2022-08-02T13:54:19;1.02;;;0.20;;
42244;SDS011;27912;51.828;5.688;2022-08-02T13:56:45;0.50;;;0.20;;
42244;SDS011;27912;51.828;5.688;2022-08-02T13:59:10;0.50;;;0.20;;
42244;SDS011;27912;51.828;5.688;2022-08-02T14:01:36;1.45;;;0.30;;
42244;SDS011;27912;51.828;5.688;2022-08-02T14:04:02;2.55;;;0.30;;
42244;SDS011;27912;51.828;5.688;2022-08-02T14:06:30;0.80;;;0.30;;
42244;SDS011;27912;51.828;5.688;2022-08-02T14:08:57;0.90;;;0.30;;
42244;SDS011;27912;51.828;5.688;2022-08-02T14:11:23;2.92;;;0.20;;
42244;SDS011;27912;51.828;5.688;2022-08-02T14:13:48;1.85;;;0.20;;
42244;SDS011;27912;51.828;5.688;2022-08-02T14:16:14;1.42;;;0.40;;
42244;SDS011;27912;51.828;5.688;2022-08-02T14:18:39;2.50;;;0.38;;
42244;SDS011;27912;51.828;5.688;2022-08-02T14:21:05;1.25;;;0.40;;
42244;SDS011;27912;51.828;5.688;2022-08-02T14:23:30;0.68;;;0.30;;
42244;SDS011;27912;51.828;5.688;2022-08-02T14:25:56;1.50;;;0.30;;
42244;SDS011;27912;51.828;5.688;2022-08-02T14:28:22;3.40;;;0.30;;
42244;SDS011;27912;51.828;5.688;2022-08-02T14:30:48;1.10;;;0.30;;
42244;SDS011;27912;51.828;5.688;2022-08-02T14:33:14;0.75;;;0.28;;
42244;SDS011;27912;51.828;5.688;2022-08-02T14:35:39;1.50;;;0.30;;
42244;SDS011;27912;51.828;5.688;2022-08-02T14:38:05;1.77;;;0.30;;
42244;SDS011;27912;51.828;5.688;2022-08-02T14:40:31;1.08;;;0.30;;
42244;SDS011;27912;51.828;5.688;2022-08-02T14:42:59;2.05;;;0.30;;
42244;SDS011;27912;51.828;5.688;2022-08-02T14:45:25;0.95;;;0.30;;
42244;SDS011;27912;51.828;5.688;2022-08-02T14:47:52;1.55;;;0.30;;
42244;SDS011;27912;51.828;5.688;2022-08-02T14:50:18;2.75;;;0.35;;
42244;SDS011;27912;51.828;5.688;2022-08-02T14:52:44;0.75;;;0.20;;
42244;SDS011;27912;51.828;5.688;2022-08-02T14:55:10;2.22;;;0.20;;
42244;SDS011;27912;51.828;5.688;2022-08-02T14:57:36;3.13;;;0.22;;
42244;SDS011;27912;51.828;5.688;2022-08-02T15:00:02;1.42;;;0.25;;
42244;SDS011;27912;51.828;5.688;2022-08-02T15:02:29;1.35;;;0.20;;
42244;SDS011;27912;51.828;5.688;2022-08-02T15:04:54;0.50;;;0.20;;
42244;SDS011;27912;51.828;5.688;2022-08-02T15:07:20;1.02;;;0.30;;
42244;SDS011;27912;51.828;5.688;2022-08-02T15:09:45;1.10;;;0.30;;
42244;SDS011;27912;51.828;5.688;2022-08-02T15:12:11;1.25;;;0.20;;
42244;SDS011;27912;51.828;5.688;2022-08-02T15:14:38;1.02;;;0.28;;
42244;SDS011;27912;51.828;5.688;2022-08-02T15:17:04;2.92;;;0.40;;
42244;SDS011;27912;51.828;5.688;2022-08-02T15:19:30;1.98;;;0.30;;
42244;SDS011;27912;51.828;5.688;2022-08-02T15:21:56;1.10;;;0.30;;
42244;SDS011;27912;51.828;5.688;2022-08-02T15:24:22;3.25;;;0.30;;
42244;SDS011;27912;51.828;5.688;2022-08-02T15:26:47;1.83;;;0.32;;
42244;SDS011;27912;51.828;5.688;2022-08-02T15:29:14;2.30;;;0.30;;
42244;SDS011;27912;51.828;5.688;2022-08-02T15:31:40;1.63;;;0.30;;
42244;SDS011;27912;51.828;5.688;2022-08-02T15:34:06;1.23;;;0.30;;
42244;SDS011;27912;51.828;5.688;2022-08-02T15:36:31;2.30;;;0.30;;
42244;SDS011;27912;51.828;5.688;2022-08-02T15:38:57;2.03;;;0.40;;
42244;SDS011;27912;51.828;5.688;2022-08-02T15:41:22;0.70;;;0.20;;
42244;SDS011;27912;51.828;5.688;2022-08-02T15:43:48;2.85;;;0.60;;
42244;SDS011;27912;51.828;5.688;2022-08-02T15:46:14;2.30;;;0.30;;